sensor_id;sensor_type;location;lat;lon;timestamp;P1;durP1;ratioP1;P2;durP2;ratioP2
37485;SDS011;23341;50.296;18.960;2022-12-07T00:02:15;63.83;;;29.38;;
37485;SDS011;23341;50.296;18.960;2022-12-07T00:07:20;65.32;;;31.58;;
37485;SDS011;23341;50.296;18.960;2022-12-07T00:12:28;75.30;;;37.08;;
37485;SDS011;23341;50.296;18.960;2022-12-07T00:17:32;60.13;;;31.48;;
37485;SDS011;23341;50.296;18.960;2022-12-07T00:22:37;77.32;;;38.38;;
37485;SDS011;23341;50.296;18.960;2022-12-07T00:27:40;64.18;;;33.45;;
37485;SDS011;23341;50.296;18.960;2022-12-07T00:32:44;66.20;;;34.65;;
37485;SDS011;23341;50.296;18.960;2022-12-07T00:37:49;61.15;;;31.30;;
37485;SDS011;23341;50.296;18.960;2022-12-07T00:42:52;64.82;;;29.33;;
37485;SDS011;23341;50.296;18.960;2022-12-07T00:47:55;56.40;;;29.58;;
37485;SDS011;23341;50.296;18.960;2022-12-07T00:53:00;52.17;;;25.80;;
37485;SDS011;23341;50.296;18.960;2022-12-07T00:58:04;46.55;;;26.00;;
37485;SDS011;23341;50.296;18.960;2022-12-07T01:03:08;44.42;;;23.52;;
37485;SDS011;23341;50.296;18.960;2022-12-07T01:08:15;47.10;;;24.45;;
37485;SDS011;23341;50.296;18.960;2022-12-07T01:13:18;53.67;;;26.23;;
37485;SDS011;23341;50.296;18.960;2022-12-07T01:18:22;52.90;;;25.42;;
37485;SDS011;23341;50.296;18.960;2022-12-07T01:23:27;58.05;;;29.42;;
37485;SDS011;23341;50.296;18.960;2022-12-07T01:28:31;57.17;;;28.40;;
37485;SDS011;23341;50.296;18.960;2022-12-07T01:33:35;60.20;;;30.65;;
37485;SDS011;23341;50.296;18.960;2022-12-07T01:38:41;65.28;;;32.50;;
37485;SDS011;23341;50.296;18.960;2022-12-07T01:49:20;67.18;;;32.83;;
37485;SDS011;23341;50.296;18.960;2022-12-07T01:54:29;77.18;;;36.85;;
37485;SDS011;23341;50.296;18.960;2022-12-07T01:59:34;82.55;;;39.38;;
37485;SDS011;23341;50.296;18.960;2022-12-07T02:04:38;86.25;;;43.53;;
37485;SDS011;23341;50.296;18.960;2022-12-07T02:09:43;100.40;;;44.50;;
37485;SDS011;23341;50.296;18.960;2022-12-07T02:14:47;91.72;;;43.10;;
37485;SDS011;23341;50.296;18.960;2022-12-07T02:20:04;95.60;;;45.70;;
37485;SDS011;23341;50.296;18.960;2022-12-07T02:25:22;97.18;;;46.00;;
37485;SDS011;23341;50.296;18.960;2022-12-07T02:30:40;89.38;;;42.50;;
37485;SDS011;23341;50.296;18.960;2022-12-07T02:35:51;82.68;;;39.75;;
37485;SDS011;23341;50.296;18.960;2022-12-07T02:41:00;80.07;;;35.33;;
37485;SDS011;23341;50.296;18.960;2022-12-07T02:46:11;72.13;;;34.85;;
37485;SDS011;23341;50.296;18.960;2022-12-07T02:51:18;75.68;;;33.47;;
37485;SDS011;23341;50.296;18.960;2022-12-07T02:56:23;72.13;;;35.15;;
37485;SDS011;23341;50.296;18.960;2022-12-07T03:08:51;57.88;;;29.83;;
37485;SDS011;23341;50.296;18.960;2022-12-07T03:14:02;61.40;;;31.55;;
37485;SDS011;23341;50.296;18.960;2022-12-07T03:19:14;68.05;;;34.97;;
37485;SDS011;23341;50.296;18.960;2022-12-07T03:24:23;70.38;;;33.03;;
37485;SDS011;23341;50.296;18.960;2022-12-07T03:29:31;68.30;;;32.42;;
37485;SDS011;23341;50.296;18.960;2022-12-07T03:34:39;61.25;;;34.92;;
37485;SDS011;23341;50.296;18.960;2022-12-07T03:39:52;80.53;;;40.03;;
37485;SDS011;23341;50.296;18.960;2022-12-07T03:45:03;84.15;;;37.90;;
37485;SDS011;23341;50.296;18.960;2022-12-07T03:50:09;102.75;;;43.67;;
37485;SDS011;23341;50.296;18.960;2022-12-07T03:55:19;96.22;;;39.40;;
37485;SDS011;23341;50.296;18.960;2022-12-07T04:00:28;107.05;;;38.85;;
37485;SDS011;23341;50.296;18.960;2022-12-07T04:05:32;120.35;;;47.00;;
37485;SDS011;23341;50.296;18.960;2022-12-07T04:10:37;157.02;;;59.10;;
37485;SDS011;23341;50.296;18.960;2022-12-07T04:15:40;119.07;;;40.15;;
37485;SDS011;23341;50.296;18.960;2022-12-07T04:20:45;102.35;;;40.97;;
37485;SDS011;23341;50.296;18.960;2022-12-07T04:25:50;83.93;;;31.80;;
37485;SDS011;23341;50.296;18.960;2022-12-07T04:30:54;88.60;;;33.85;;
37485;SDS011;23341;50.296;18.960;2022-12-07T04:35:58;85.03;;;34.97;;
37485;SDS011;23341;50.296;18.960;2022-12-07T04:41:05;86.65;;;34.67;;
37485;SDS011;23341;50.296;18.960;2022-12-07T04:46:09;84.10;;;35.55;;
37485;SDS011;23341;50.296;18.960;2022-12-07T04:51:13;94.03;;;37.58;;
37485;SDS011;23341;50.296;18.960;2022-12-07T04:56:20;90.07;;;37.85;;
37485;SDS011;23341;50.296;18.960;2022-12-07T05:01:24;76.68;;;30.75;;
37485;SDS011;23341;50.296;18.960;2022-12-07T05:06:28;66.13;;;27.77;;
37485;SDS011;23341;50.296;18.960;2022-12-07T05:11:33;65.57;;;27.90;;
37485;SDS011;23341;50.296;18.960;2022-12-07T05:16:42;60.47;;;29.98;;
37485;SDS011;23341;50.296;18.960;2022-12-07T05:21:47;65.13;;;30.75;;
37485;SDS011;23341;50.296;18.960;2022-12-07T05:26:52;89.57;;;35.50;;
37485;SDS011;23341;50.296;18.960;2022-12-07T05:54:17;42.20;;;22.33;;
37485;SDS011;23341;50.296;18.960;2022-12-07T05:59:21;53.17;;;25.23;;
37485;SDS011;23341;50.296;18.960;2022-12-07T06:04:30;67.10;;;34.00;;
37485;SDS011;23341;50.296;18.960;2022-12-07T06:09:36;58.05;;;29.75;;
37485;SDS011;23341;50.296;18.960;2022-12-07T06:14:40;65.53;;;33.03;;
37485;SDS011;23341;50.296;18.960;2022-12-07T06:19:44;69.90;;;32.15;;
37485;SDS011;23341;50.296;18.960;2022-12-07T06:24:49;84.43;;;40.45;;
37485;SDS011;23341;50.296;18.960;2022-12-07T06:29:52;80.50;;;38.95;;
37485;SDS011;23341;50.296;18.960;2022-12-07T06:34:56;80.78;;;40.55;;
37485;SDS011;23341;50.296;18.960;2022-12-07T06:40:00;104.50;;;47.55;;
37485;SDS011;23341;50.296;18.960;2022-12-07T06:45:05;88.38;;;42.33;;
37485;SDS011;23341;50.296;18.960;2022-12-07T06:50:09;68.30;;;33.67;;
37485;SDS011;23341;50.296;18.960;2022-12-07T06:55:14;76.68;;;39.40;;
37485;SDS011;23341;50.296;18.960;2022-12-07T07:00:18;73.30;;;38.05;;
37485;SDS011;23341;50.296;18.960;2022-12-07T07:05:23;95.60;;;49.17;;
37485;SDS011;23341;50.296;18.960;2022-12-07T07:10:28;61.55;;;32.85;;
37485;SDS011;23341;50.296;18.960;2022-12-07T07:15:32;72.97;;;39.88;;
37485;SDS011;23341;50.296;18.960;2022-12-07T07:20:35;81.38;;;40.92;;
37485;SDS011;23341;50.296;18.960;2022-12-07T07:25:41;63.80;;;35.67;;
37485;SDS011;23341;50.296;18.960;2022-12-07T07:30:44;80.70;;;42.10;;
37485;SDS011;23341;50.296;18.960;2022-12-07T07:35:48;81.10;;;42.05;;
37485;SDS011;23341;50.296;18.960;2022-12-07T07:40:53;70.80;;;37.67;;
37485;SDS011;23341;50.296;18.960;2022-12-07T07:45:57;77.35;;;43.50;;
37485;SDS011;23341;50.296;18.960;2022-12-07T07:51:00;84.18;;;42.53;;
37485;SDS011;23341;50.296;18.960;2022-12-07T07:56:09;80.20;;;41.22;;
37485;SDS011;23341;50.296;18.960;2022-12-07T08:01:13;81.45;;;37.95;;
37485;SDS011;23341;50.296;18.960;2022-12-07T08:06:18;76.75;;;38.20;;
37485;SDS011;23341;50.296;18.960;2022-12-07T08:11:23;73.78;;;38.35;;
37485;SDS011;23341;50.296;18.960;2022-12-07T08:16:27;74.18;;;41.75;;
37485;SDS011;23341;50.296;18.960;2022-12-07T08:21:30;76.32;;;40.05;;
37485;SDS011;23341;50.296;18.960;2022-12-07T08:26:35;80.05;;;40.00;;
37485;SDS011;23341;50.296;18.960;2022-12-07T08:31:39;81.38;;;40.88;;
37485;SDS011;23341;50.296;18.960;2022-12-07T08:36:42;88.47;;;42.50;;
37485;SDS011;23341;50.296;18.960;2022-12-07T08:41:47;134.55;;;67.03;;
37485;SDS011;23341;50.296;18.960;2022-12-07T08:46:51;91.72;;;47.85;;
37485;SDS011;23341;50.296;18.960;2022-12-07T08:51:59;92.10;;;44.17;;
37485;SDS011;23341;50.296;18.960;2022-12-07T08:57:04;98.20;;;47.22;;
37485;SDS011;23341;50.296;18.960;2022-12-07T09:02:09;110.60;;;51.78;;
37485;SDS011;23341;50.296;18.960;2022-12-07T09:07:13;93.25;;;44.88;;
37485;SDS011;23341;50.296;18.960;2022-12-07T09:12:18;68.68;;;36.00;;
37485;SDS011;23341;50.296;18.960;2022-12-07T09:17:21;74.20;;;39.67;;
37485;SDS011;23341;50.296;18.960;2022-12-07T09:22:26;79.35;;;44.10;;
37485;SDS011;23341;50.296;18.960;2022-12-07T09:27:33;61.10;;;36.50;;
37485;SDS011;23341;50.296;18.960;2022-12-07T09:32:36;189.43;;;73.88;;
37485;SDS011;23341;50.296;18.960;2022-12-07T09:37:40;78.35;;;43.28;;
37485;SDS011;23341;50.296;18.960;2022-12-07T09:42:47;63.63;;;36.70;;
37485;SDS011;23341;50.296;18.960;2022-12-07T09:47:52;74.18;;;41.25;;
37485;SDS011;23341;50.296;18.960;2022-12-07T09:53:02;77.25;;;40.10;;
37485;SDS011;23341;50.296;18.960;2022-12-07T09:58:13;80.40;;;44.50;;
37485;SDS011;23341;50.296;18.960;2022-12-07T10:03:25;90.60;;;53.47;;
37485;SDS011;23341;50.296;18.960;2022-12-07T10:08:29;99.25;;;59.53;;
37485;SDS011;23341;50.296;18.960;2022-12-07T10:13:38;96.90;;;52.92;;
37485;SDS011;23341;50.296;18.960;2022-12-07T10:18:43;81.82;;;50.28;;
37485;SDS011;23341;50.296;18.960;2022-12-07T10:23:58;75.43;;;41.78;;
37485;SDS011;23341;50.296;18.960;2022-12-07T10:29:12;75.93;;;45.78;;
37485;SDS011;23341;50.296;18.960;2022-12-07T10:34:20;74.03;;;43.22;;
37485;SDS011;23341;50.296;18.960;2022-12-07T10:39:26;63.60;;;38.83;;
37485;SDS011;23341;50.296;18.960;2022-12-07T10:44:32;90.68;;;45.85;;
37485;SDS011;23341;50.296;18.960;2022-12-07T10:49:54;64.10;;;38.33;;
37485;SDS011;23341;50.296;18.960;2022-12-07T10:55:22;56.85;;;34.85;;
37485;SDS011;23341;50.296;18.960;2022-12-07T11:00:39;57.15;;;36.15;;
37485;SDS011;23341;50.296;18.960;2022-12-07T11:05:49;45.22;;;31.38;;
37485;SDS011;23341;50.296;18.960;2022-12-07T11:10:57;41.72;;;26.67;;
37485;SDS011;23341;50.296;18.960;2022-12-07T11:16:14;40.88;;;26.75;;
37485;SDS011;23341;50.296;18.960;2022-12-07T11:21:24;43.72;;;24.17;;
37485;SDS011;23341;50.296;18.960;2022-12-07T11:26:41;46.38;;;30.08;;
37485;SDS011;23341;50.296;18.960;2022-12-07T11:31:58;35.97;;;22.48;;
37485;SDS011;23341;50.296;18.960;2022-12-07T11:37:09;44.35;;;25.15;;
37485;SDS011;23341;50.296;18.960;2022-12-07T11:42:19;53.43;;;32.33;;
37485;SDS011;23341;50.296;18.960;2022-12-07T11:47:30;45.17;;;27.75;;
37485;SDS011;23341;50.296;18.960;2022-12-07T11:52:43;36.13;;;23.92;;
37485;SDS011;23341;50.296;18.960;2022-12-07T11:57:51;69.95;;;35.15;;
37485;SDS011;23341;50.296;18.960;2022-12-07T12:03:07;38.97;;;24.20;;
37485;SDS011;23341;50.296;18.960;2022-12-07T12:08:19;43.88;;;22.98;;
37485;SDS011;23341;50.296;18.960;2022-12-07T12:14:00;40.17;;;21.75;;
37485;SDS011;23341;50.296;18.960;2022-12-07T12:19:37;25.40;;;17.13;;
37485;SDS011;23341;50.296;18.960;2022-12-07T12:24:44;27.00;;;18.30;;
37485;SDS011;23341;50.296;18.960;2022-12-07T12:29:53;30.77;;;17.60;;
37485;SDS011;23341;50.296;18.960;2022-12-07T12:35:02;41.97;;;21.50;;
37485;SDS011;23341;50.296;18.960;2022-12-07T12:40:37;24.35;;;15.60;;
37485;SDS011;23341;50.296;18.960;2022-12-07T12:45:51;17.10;;;12.55;;
37485;SDS011;23341;50.296;18.960;2022-12-07T12:51:37;11.57;;;9.07;;
37485;SDS011;23341;50.296;18.960;2022-12-07T12:56:43;12.35;;;8.57;;
37485;SDS011;23341;50.296;18.960;2022-12-07T13:01:54;24.98;;;16.30;;
37485;SDS011;23341;50.296;18.960;2022-12-07T13:07:01;21.77;;;15.20;;
37485;SDS011;23341;50.296;18.960;2022-12-07T13:12:05;21.52;;;11.88;;
37485;SDS011;23341;50.296;18.960;2022-12-07T13:22:55;70.13;;;34.33;;
37485;SDS011;23341;50.296;18.960;2022-12-07T13:28:06;20.35;;;13.18;;
37485;SDS011;23341;50.296;18.960;2022-12-07T13:33:14;38.17;;;21.75;;
37485;SDS011;23341;50.296;18.960;2022-12-07T13:38:25;21.08;;;12.30;;
37485;SDS011;23341;50.296;18.960;2022-12-07T13:43:31;59.08;;;29.55;;
37485;SDS011;23341;50.296;18.960;2022-12-07T13:48:46;33.38;;;19.13;;
37485;SDS011;23341;50.296;18.960;2022-12-07T13:53:53;18.25;;;12.05;;
37485;SDS011;23341;50.296;18.960;2022-12-07T13:58:58;32.47;;;21.40;;
37485;SDS011;23341;50.296;18.960;2022-12-07T14:04:19;25.67;;;16.48;;
37485;SDS011;23341;50.296;18.960;2022-12-07T14:09:33;36.47;;;20.30;;
37485;SDS011;23341;50.296;18.960;2022-12-07T14:14:37;49.47;;;26.23;;
37485;SDS011;23341;50.296;18.960;2022-12-07T14:19:42;34.50;;;18.52;;
37485;SDS011;23341;50.296;18.960;2022-12-07T14:24:57;31.48;;;17.08;;
37485;SDS011;23341;50.296;18.960;2022-12-07T14:30:03;61.50;;;30.92;;
37485;SDS011;23341;50.296;18.960;2022-12-07T14:35:09;38.92;;;21.48;;
37485;SDS011;23341;50.296;18.960;2022-12-07T14:40:17;30.00;;;19.67;;
37485;SDS011;23341;50.296;18.960;2022-12-07T14:45:23;42.45;;;22.95;;
37485;SDS011;23341;50.296;18.960;2022-12-07T14:50:26;31.58;;;18.42;;
37485;SDS011;23341;50.296;18.960;2022-12-07T14:55:31;43.97;;;25.85;;
37485;SDS011;23341;50.296;18.960;2022-12-07T15:00:35;85.63;;;44.08;;
37485;SDS011;23341;50.296;18.960;2022-12-07T15:05:38;58.00;;;29.50;;
37485;SDS011;23341;50.296;18.960;2022-12-07T15:10:43;81.45;;;36.75;;
37485;SDS011;23341;50.296;18.960;2022-12-07T15:15:47;142.23;;;58.78;;
37485;SDS011;23341;50.296;18.960;2022-12-07T15:20:51;43.65;;;20.95;;
37485;SDS011;23341;50.296;18.960;2022-12-07T15:25:56;54.33;;;25.77;;
37485;SDS011;23341;50.296;18.960;2022-12-07T15:31:00;52.65;;;26.02;;
37485;SDS011;23341;50.296;18.960;2022-12-07T15:36:24;68.25;;;33.08;;
37485;SDS011;23341;50.296;18.960;2022-12-07T15:41:30;59.83;;;33.40;;
37485;SDS011;23341;50.296;18.960;2022-12-07T15:46:35;69.93;;;27.65;;
37485;SDS011;23341;50.296;18.960;2022-12-07T15:51:40;46.80;;;25.85;;
37485;SDS011;23341;50.296;18.960;2022-12-07T15:56:46;108.13;;;41.17;;
37485;SDS011;23341;50.296;18.960;2022-12-07T16:01:50;156.75;;;61.60;;
37485;SDS011;23341;50.296;18.960;2022-12-07T16:06:53;104.43;;;50.53;;
37485;SDS011;23341;50.296;18.960;2022-12-07T16:11:58;84.97;;;39.05;;
37485;SDS011;23341;50.296;18.960;2022-12-07T16:17:02;46.83;;;27.27;;
37485;SDS011;23341;50.296;18.960;2022-12-07T16:22:06;91.28;;;40.00;;
37485;SDS011;23341;50.296;18.960;2022-12-07T16:27:11;39.67;;;20.70;;
37485;SDS011;23341;50.296;18.960;2022-12-07T16:32:14;41.85;;;25.95;;
37485;SDS011;23341;50.296;18.960;2022-12-07T16:37:18;36.00;;;19.30;;
37485;SDS011;23341;50.296;18.960;2022-12-07T16:42:23;37.35;;;20.80;;
37485;SDS011;23341;50.296;18.960;2022-12-07T16:47:26;48.17;;;24.05;;
37485;SDS011;23341;50.296;18.960;2022-12-07T16:52:30;51.70;;;27.83;;
37485;SDS011;23341;50.296;18.960;2022-12-07T16:57:35;48.33;;;24.80;;
37485;SDS011;23341;50.296;18.960;2022-12-07T17:02:38;49.97;;;29.13;;
37485;SDS011;23341;50.296;18.960;2022-12-07T17:07:42;44.05;;;27.58;;
37485;SDS011;23341;50.296;18.960;2022-12-07T17:12:47;62.60;;;31.33;;
37485;SDS011;23341;50.296;18.960;2022-12-07T17:17:51;71.22;;;35.08;;
37485;SDS011;23341;50.296;18.960;2022-12-07T17:22:56;59.85;;;30.20;;
37485;SDS011;23341;50.296;18.960;2022-12-07T17:28:00;66.43;;;37.53;;
37485;SDS011;23341;50.296;18.960;2022-12-07T17:33:05;89.53;;;42.38;;
37485;SDS011;23341;50.296;18.960;2022-12-07T17:38:08;53.00;;;29.50;;
37485;SDS011;23341;50.296;18.960;2022-12-07T17:43:13;49.08;;;27.15;;
37485;SDS011;23341;50.296;18.960;2022-12-07T17:48:17;49.58;;;27.20;;
37485;SDS011;23341;50.296;18.960;2022-12-07T17:53:20;70.40;;;36.33;;
37485;SDS011;23341;50.296;18.960;2022-12-07T17:58:27;46.22;;;23.85;;
37485;SDS011;23341;50.296;18.960;2022-12-07T18:03:31;28.42;;;17.75;;
37485;SDS011;23341;50.296;18.960;2022-12-07T18:08:35;45.72;;;22.50;;
37485;SDS011;23341;50.296;18.960;2022-12-07T18:13:41;54.95;;;28.60;;
37485;SDS011;23341;50.296;18.960;2022-12-07T18:18:45;53.00;;;30.40;;
37485;SDS011;23341;50.296;18.960;2022-12-07T18:23:55;55.67;;;31.25;;
37485;SDS011;23341;50.296;18.960;2022-12-07T18:29:03;53.85;;;29.95;;
37485;SDS011;23341;50.296;18.960;2022-12-07T18:34:09;53.60;;;28.55;;
37485;SDS011;23341;50.296;18.960;2022-12-07T18:39:14;105.35;;;59.97;;
37485;SDS011;23341;50.296;18.960;2022-12-07T18:44:21;62.47;;;37.25;;
37485;SDS011;23341;50.296;18.960;2022-12-07T18:49:24;48.03;;;26.75;;
37485;SDS011;23341;50.296;18.960;2022-12-07T18:54:28;70.93;;;38.08;;
37485;SDS011;23341;50.296;18.960;2022-12-07T18:59:33;70.07;;;37.58;;
37485;SDS011;23341;50.296;18.960;2022-12-07T19:04:49;51.67;;;29.83;;
37485;SDS011;23341;50.296;18.960;2022-12-07T19:09:52;58.90;;;28.67;;
37485;SDS011;23341;50.296;18.960;2022-12-07T19:14:57;40.55;;;22.90;;
37485;SDS011;23341;50.296;18.960;2022-12-07T19:20:02;43.80;;;23.67;;
37485;SDS011;23341;50.296;18.960;2022-12-07T19:25:08;48.53;;;26.85;;
37485;SDS011;23341;50.296;18.960;2022-12-07T19:30:14;40.05;;;21.88;;
37485;SDS011;23341;50.296;18.960;2022-12-07T19:35:18;39.50;;;21.55;;
37485;SDS011;23341;50.296;18.960;2022-12-07T19:40:21;47.80;;;25.45;;
37485;SDS011;23341;50.296;18.960;2022-12-07T19:45:26;36.40;;;18.60;;
37485;SDS011;23341;50.296;18.960;2022-12-07T19:50:31;31.67;;;19.10;;
37485;SDS011;23341;50.296;18.960;2022-12-07T19:55:37;34.83;;;19.20;;
37485;SDS011;23341;50.296;18.960;2022-12-07T20:00:42;42.28;;;21.58;;
37485;SDS011;23341;50.296;18.960;2022-12-07T20:05:46;37.72;;;20.20;;
37485;SDS011;23341;50.296;18.960;2022-12-07T20:10:50;43.50;;;22.33;;
37485;SDS011;23341;50.296;18.960;2022-12-07T20:15:55;43.70;;;23.40;;
37485;SDS011;23341;50.296;18.960;2022-12-07T20:21:19;45.55;;;24.95;;
37485;SDS011;23341;50.296;18.960;2022-12-07T20:26:22;51.17;;;28.08;;
37485;SDS011;23341;50.296;18.960;2022-12-07T20:31:27;52.25;;;29.73;;
37485;SDS011;23341;50.296;18.960;2022-12-07T20:36:31;57.67;;;30.60;;
37485;SDS011;23341;50.296;18.960;2022-12-07T20:41:34;75.55;;;39.92;;
37485;SDS011;23341;50.296;18.960;2022-12-07T20:46:57;66.28;;;35.90;;
37485;SDS011;23341;50.296;18.960;2022-12-07T20:52:00;62.80;;;36.03;;
37485;SDS011;23341;50.296;18.960;2022-12-07T20:57:04;81.13;;;42.58;;
37485;SDS011;23341;50.296;18.960;2022-12-07T21:02:10;89.95;;;45.38;;
37485;SDS011;23341;50.296;18.960;2022-12-07T21:07:15;83.35;;;41.45;;
37485;SDS011;23341;50.296;18.960;2022-12-07T21:12:19;88.22;;;44.85;;
37485;SDS011;23341;50.296;18.960;2022-12-07T21:17:24;116.63;;;54.15;;
37485;SDS011;23341;50.296;18.960;2022-12-07T21:22:28;121.10;;;57.53;;
37485;SDS011;23341;50.296;18.960;2022-12-07T21:27:32;119.72;;;55.80;;
37485;SDS011;23341;50.296;18.960;2022-12-07T21:32:37;91.90;;;47.47;;
37485;SDS011;23341;50.296;18.960;2022-12-07T21:37:41;87.22;;;46.33;;
37485;SDS011;23341;50.296;18.960;2022-12-07T21:42:44;72.40;;;39.75;;
37485;SDS011;23341;50.296;18.960;2022-12-07T21:47:49;77.38;;;40.58;;
37485;SDS011;23341;50.296;18.960;2022-12-07T21:52:53;72.00;;;39.10;;
37485;SDS011;23341;50.296;18.960;2022-12-07T21:57:56;98.68;;;45.50;;
37485;SDS011;23341;50.296;18.960;2022-12-07T22:03:01;98.15;;;46.72;;
37485;SDS011;23341;50.296;18.960;2022-12-07T22:08:05;90.55;;;45.55;;
37485;SDS011;23341;50.296;18.960;2022-12-07T22:13:08;85.07;;;44.10;;
37485;SDS011;23341;50.296;18.960;2022-12-07T22:18:13;92.18;;;44.83;;
37485;SDS011;23341;50.296;18.960;2022-12-07T22:23:17;78.35;;;39.25;;
37485;SDS011;23341;50.296;18.960;2022-12-07T22:28:21;76.80;;;35.38;;
37485;SDS011;23341;50.296;18.960;2022-12-07T22:33:29;70.18;;;34.55;;
37485;SDS011;23341;50.296;18.960;2022-12-07T22:38:33;62.92;;;31.67;;
37485;SDS011;23341;50.296;18.960;2022-12-07T22:43:37;65.72;;;29.85;;
37485;SDS011;23341;50.296;18.960;2022-12-07T22:48:42;57.97;;;28.95;;
37485;SDS011;23341;50.296;18.960;2022-12-07T22:53:46;57.60;;;31.33;;
37485;SDS011;23341;50.296;18.960;2022-12-07T22:58:50;56.50;;;28.45;;
37485;SDS011;23341;50.296;18.960;2022-12-07T23:03:55;56.75;;;31.88;;
37485;SDS011;23341;50.296;18.960;2022-12-07T23:08:59;53.58;;;27.15;;
37485;SDS011;23341;50.296;18.960;2022-12-07T23:14:08;60.33;;;30.48;;
37485;SDS011;23341;50.296;18.960;2022-12-07T23:19:15;42.17;;;23.05;;
37485;SDS011;23341;50.296;18.960;2022-12-07T23:24:18;43.30;;;23.73;;
37485;SDS011;23341;50.296;18.960;2022-12-07T23:29:22;44.92;;;23.08;;
37485;SDS011;23341;50.296;18.960;2022-12-07T23:34:27;45.42;;;25.50;;
37485;SDS011;23341;50.296;18.960;2022-12-07T23:39:30;71.93;;;35.97;;
37485;SDS011;23341;50.296;18.960;2022-12-07T23:44:34;45.35;;;24.75;;
37485;SDS011;23341;50.296;18.960;2022-12-07T23:49:39;48.35;;;24.40;;
37485;SDS011;23341;50.296;18.960;2022-12-07T23:54:42;49.17;;;26.13;;
37485;SDS011;23341;50.296;18.960;2022-12-07T23:59:46;43.88;;;23.70;;
